createdAt,value
2022-12-16T00:01:07.923Z,-5.80
2022-12-16T00:05:13.247Z,-5.86
2022-12-16T00:09:16.558Z,-5.63
2022-12-16T00:13:19.683Z,-5.87
2022-12-16T00:17:23.897Z,-6.07
2022-12-16T00:21:28.847Z,-6.02
2022-12-16T00:25:32.158Z,-6.11
2022-12-16T00:29:35.220Z,-6.02
2022-12-16T00:33:38.311Z,-5.98
2022-12-16T00:37:43.119Z,-6.15
2022-12-16T00:41:47.840Z,-6.27
2022-12-16T00:45:51.911Z,-6.26
2022-12-16T00:49:55.562Z,-6.15
2022-12-16T00:54:00.172Z,-6.33
2022-12-16T00:58:03.395Z,-6.43
2022-12-16T01:02:07.339Z,-6.51
2022-12-16T01:06:13.114Z,-6.51
2022-12-16T01:10:17.679Z,-6.57
2022-12-16T01:14:21.561Z,-6.68
2022-12-16T01:18:24.878Z,-6.64
2022-12-16T01:22:28.433Z,-6.58
2022-12-16T01:26:33.611Z,-6.76
2022-12-16T01:30:36.781Z,-6.87
2022-12-16T01:34:39.995Z,-6.72
2022-12-16T01:38:45.077Z,-6.81
2022-12-16T01:42:50.891Z,-6.75
2022-12-16T01:46:57.689Z,-6.88
2022-12-16T01:51:03.234Z,-7.17
2022-12-16T01:55:11.037Z,-6.57
2022-12-16T01:59:17.011Z,-6.97
2022-12-16T02:03:20.693Z,-7.31
2022-12-16T02:07:24.069Z,-7.27
2022-12-16T02:11:43.307Z,-7.53
2022-12-16T02:15:51.742Z,-7.64
2022-12-16T02:20:23.975Z,-7.90
2022-12-16T02:25:15.989Z,-7.83
2022-12-16T02:29:48.015Z,-8.02
2022-12-16T02:34:10.278Z,-7.85
2022-12-16T02:38:21.065Z,-8.06
2022-12-16T02:42:30.482Z,-8.04
2022-12-16T02:46:34.548Z,-7.91
2022-12-16T02:50:42.327Z,-8.04
2022-12-16T02:54:45.636Z,-8.00
2022-12-16T02:58:53.497Z,-7.93
2022-12-16T03:03:00.084Z,-8.10
2022-12-16T03:07:05.926Z,-8.36
2022-12-16T03:11:09.496Z,-8.14
2022-12-16T03:15:16.998Z,-8.36
2022-12-16T03:19:21.327Z,-8.44
2022-12-16T03:23:29.414Z,-8.38
2022-12-16T03:27:37.338Z,-8.61
2022-12-16T03:31:44.213Z,-8.51
2022-12-16T03:35:51.192Z,-8.39
2022-12-16T03:39:58.082Z,-8.54
2022-12-16T03:44:02.110Z,-8.80
2022-12-16T03:48:08.655Z,-9.02
2022-12-16T03:52:11.939Z,-9.00
2022-12-16T03:56:17.045Z,-8.90
2022-12-16T04:00:20.967Z,-9.30
2022-12-16T04:04:25.337Z,-9.13
2022-12-16T04:08:28.693Z,-9.04
2022-12-16T04:12:51.440Z,-9.21
2022-12-16T04:17:12.273Z,-9.28
2022-12-16T04:25:32.641Z,-9.69
2022-12-16T04:29:58.231Z,-9.56
2022-12-16T04:34:18.857Z,-9.52
2022-12-16T04:38:39.545Z,-9.71
2022-12-16T04:43:00.006Z,-9.54
2022-12-16T04:55:44.986Z,-9.37
2022-12-16T05:00:05.185Z,-9.67
2022-12-16T05:08:42.120Z,-9.71
2022-12-16T05:13:07.121Z,-9.56
2022-12-16T05:17:28.323Z,-9.63
2022-12-16T05:21:48.566Z,-9.99
2022-12-16T06:08:57.377Z,-9.82
2022-12-16T08:13:40.083Z,-9.74
2022-12-16T08:18:01.614Z,-9.83
2022-12-16T08:22:22.136Z,-9.62
2022-12-16T08:26:42.344Z,-9.70
2022-12-16T08:31:08.882Z,-9.70
2022-12-16T08:35:29.494Z,-9.41
2022-12-16T08:40:10.665Z,-9.37
2022-12-16T08:44:30.305Z,-9.30
2022-12-16T08:48:52.010Z,-9.12
2022-12-16T08:53:12.127Z,-8.79
2022-12-16T08:57:32.691Z,-8.62
2022-12-16T09:01:53.026Z,-8.31
2022-12-16T09:06:18.262Z,-8.01
2022-12-16T09:10:40.594Z,-7.90
2022-12-16T09:15:01.070Z,-7.67
2022-12-16T09:19:21.674Z,-7.38
2022-12-16T09:23:43.363Z,-7.20
2022-12-16T09:28:18.186Z,-6.79
2022-12-16T09:32:34.962Z,-6.54
2022-12-16T09:36:55.270Z,-6.53
2022-12-16T09:41:18.036Z,-6.20
2022-12-16T09:45:45.002Z,-5.93
2022-12-16T09:50:07.174Z,-5.44
2022-12-16T09:54:30.960Z,-5.05
2022-12-16T09:58:56.607Z,-4.42
2022-12-16T10:03:17.841Z,-4.12
2022-12-16T10:07:40.221Z,-4.14
2022-12-16T10:12:06.611Z,-3.84
2022-12-16T10:16:42.431Z,-3.65
2022-12-16T10:21:05.183Z,-3.66
2022-12-16T10:25:30.571Z,-3.34
2022-12-16T10:29:55.000Z,-3.31
2022-12-16T10:34:17.924Z,-3.01
2022-12-16T10:38:40.724Z,-2.97
2022-12-16T10:43:20.966Z,-2.77
2022-12-16T10:47:42.787Z,-2.69
2022-12-16T10:52:09.250Z,-2.15
2022-12-16T10:56:43.069Z,-2.23
2022-12-16T11:01:05.610Z,-2.05
2022-12-16T11:05:42.035Z,-1.99
2022-12-16T11:10:03.801Z,-1.70
2022-12-16T11:14:34.921Z,-1.26
2022-12-16T11:19:07.694Z,-1.10
2022-12-16T11:23:37.640Z,-0.88
2022-12-16T11:27:59.285Z,-0.58
2022-12-16T11:32:22.190Z,-0.45
2022-12-16T11:36:43.209Z,-0.26
2022-12-16T11:41:03.302Z,-0.32
2022-12-16T11:45:31.690Z,-0.19
2022-12-16T11:55:27.629Z,0.09
2022-12-16T12:00:01.512Z,0.29
2022-12-16T12:04:23.491Z,0.34
2022-12-16T12:08:50.376Z,0.45
2022-12-16T12:13:15.519Z,0.35
2022-12-16T12:17:43.586Z,0.77
2022-12-16T12:22:20.271Z,0.57
2022-12-16T12:26:44.158Z,0.62
2022-12-16T12:31:09.117Z,0.58
2022-12-16T12:35:39.912Z,0.85
2022-12-16T12:40:04.677Z,0.62
2022-12-16T12:44:37.052Z,0.81
2022-12-16T12:49:13.440Z,0.83
2022-12-16T12:53:42.185Z,0.70
2022-12-16T12:58:05.587Z,0.79
2022-12-16T13:02:30.889Z,0.83
2022-12-16T13:06:53.372Z,0.84
2022-12-16T13:11:35.008Z,1.06
2022-12-16T13:15:58.311Z,1.15
2022-12-16T13:20:18.957Z,0.84
2022-12-16T13:24:39.964Z,0.93
2022-12-16T13:29:00.815Z,1.12
2022-12-16T13:33:25.774Z,0.97
2022-12-16T13:37:46.940Z,0.97
2022-12-16T13:42:10.101Z,1.20
2022-12-16T13:46:35.638Z,1.08
2022-12-16T13:50:59.061Z,0.83
2022-12-16T13:55:32.246Z,0.60
2022-12-16T13:59:56.092Z,0.42
2022-12-16T14:04:18.265Z,0.60
2022-12-16T14:08:41.783Z,0.45
2022-12-16T14:13:14.656Z,0.32
2022-12-16T14:17:37.374Z,0.20
2022-12-16T14:22:10.276Z,0.14
2022-12-16T14:26:33.033Z,0.02
2022-12-16T14:30:53.185Z,0.29
2022-12-16T14:35:19.735Z,-0.10
2022-12-16T14:39:49.028Z,-0.34
2022-12-16T14:44:10.815Z,-0.55
2022-12-16T14:48:42.094Z,-0.78
2022-12-16T14:53:22.252Z,-0.72
2022-12-16T14:57:43.291Z,-0.63
2022-12-16T15:02:05.811Z,-1.09
2022-12-16T15:06:31.216Z,-1.35
2022-12-16T15:10:52.146Z,-1.73
2022-12-16T15:15:15.156Z,-1.75
2022-12-16T15:19:39.055Z,-2.28
2022-12-16T15:24:00.932Z,-2.42
2022-12-16T15:28:32.512Z,-2.53
2022-12-16T15:32:54.388Z,-2.56
2022-12-16T15:37:15.846Z,-2.75
2022-12-16T15:41:40.002Z,-2.81
2022-12-16T15:46:07.228Z,-3.24
2022-12-16T15:50:30.960Z,-3.13
2022-12-16T15:54:53.128Z,-3.15
2022-12-16T15:59:33.139Z,-3.58
2022-12-16T16:03:53.305Z,-3.33
2022-12-16T16:08:13.560Z,-3.62
2022-12-16T16:12:36.907Z,-3.61
2022-12-16T16:16:57.108Z,-3.76
2022-12-16T16:21:17.192Z,-3.91
2022-12-16T16:25:37.348Z,-3.93
2022-12-16T16:29:59.069Z,-4.25
2022-12-16T16:34:19.135Z,-4.12
2022-12-16T16:38:39.398Z,-4.33
2022-12-16T16:42:59.934Z,-4.69
2022-12-16T16:47:21.955Z,-4.53
2022-12-16T16:51:42.073Z,-4.53
2022-12-16T16:56:02.626Z,-4.50
2022-12-16T17:00:24.185Z,-4.65
2022-12-16T17:04:45.958Z,-4.85
2022-12-16T17:09:06.511Z,-4.84
2022-12-16T17:13:27.919Z,-5.12
2022-12-16T17:17:59.831Z,-5.03
2022-12-16T17:22:21.748Z,-5.29
2022-12-16T17:26:42.418Z,-5.38
2022-12-16T17:31:03.369Z,-5.29
2022-12-16T17:35:24.402Z,-5.64
2022-12-16T17:39:46.239Z,-6.05
2022-12-16T17:44:06.406Z,-6.26
2022-12-16T17:48:27.169Z,-5.83
2022-12-16T17:52:47.347Z,-6.37
2022-12-16T17:57:09.359Z,-5.97
2022-12-16T18:01:29.873Z,-6.30
2022-12-16T18:05:50.403Z,-6.12
2022-12-16T18:10:10.802Z,-6.31
2022-12-16T18:14:32.865Z,-6.32
2022-12-16T18:18:53.872Z,-6.33
2022-12-16T18:23:17.611Z,-6.61
2022-12-16T18:27:37.970Z,-6.52
2022-12-16T18:32:01.223Z,-6.69
2022-12-16T18:36:22.063Z,-6.78
2022-12-16T18:40:42.297Z,-6.63
2022-12-16T18:45:02.671Z,-6.95
2022-12-16T18:49:25.225Z,-7.05
2022-12-16T18:53:46.280Z,-6.87
2022-12-16T18:58:27.533Z,-7.22
2022-12-16T19:02:48.784Z,-7.21
2022-12-16T19:07:11.061Z,-7.08
2022-12-16T19:11:31.394Z,-7.40
2022-12-16T19:15:52.580Z,-7.56
2022-12-16T19:20:09.635Z,-7.14
2022-12-16T19:24:31.734Z,-7.15
2022-12-16T19:28:53.241Z,-7.19
2022-12-16T19:33:17.526Z,-7.35
2022-12-16T19:37:38.122Z,-7.33
2022-12-16T19:42:00.392Z,-7.76
2022-12-16T19:46:21.159Z,-7.64
2022-12-16T19:50:41.709Z,-7.90
2022-12-16T19:55:03.255Z,-7.98
2022-12-16T19:59:27.482Z,-7.98
2022-12-16T20:03:48.779Z,-7.80
2022-12-16T20:08:10.136Z,-7.96
2022-12-16T20:12:31.004Z,-8.02
2022-12-16T20:16:52.943Z,-8.17
2022-12-16T20:21:14.246Z,-7.99
2022-12-16T20:25:34.683Z,-8.00
2022-12-16T20:29:56.447Z,-8.15
2022-12-16T20:34:18.697Z,-8.20
2022-12-16T20:38:39.356Z,-8.22
2022-12-16T20:42:59.851Z,-8.01
2022-12-16T20:47:20.822Z,-8.30
2022-12-16T20:51:43.123Z,-8.36
2022-12-16T20:56:03.881Z,-8.70
2022-12-16T21:00:25.584Z,-8.37
2022-12-16T21:04:46.644Z,-8.38
2022-12-16T21:09:07.494Z,-8.82
2022-12-16T21:13:29.137Z,-8.36
2022-12-16T21:17:49.775Z,-8.38
2022-12-16T21:22:10.964Z,-8.44
2022-12-16T21:26:33.120Z,-8.69
2022-12-16T21:30:53.847Z,-8.41
2022-12-16T21:35:14.976Z,-8.60
2022-12-16T21:39:40.775Z,-8.99
2022-12-16T21:44:01.937Z,-9.30
2022-12-16T21:48:22.405Z,-8.81
2022-12-16T21:52:39.786Z,-8.98
2022-12-16T21:57:00.803Z,-9.47
2022-12-16T22:01:23.400Z,-9.33
2022-12-16T22:05:43.946Z,-9.20
2022-12-16T22:10:05.714Z,-9.21
2022-12-16T22:14:26.152Z,-9.16
2022-12-16T22:18:48.246Z,-9.64
2022-12-16T22:23:08.971Z,-9.40
2022-12-16T22:27:31.035Z,-9.27
2022-12-16T22:36:20.980Z,-9.40
2022-12-16T22:40:41.537Z,-9.12
2022-12-16T22:49:30.014Z,-9.54
2022-12-16T22:53:52.247Z,-9.44
2022-12-16T22:58:13.286Z,-10.04
2022-12-16T23:07:10.293Z,-9.56
2022-12-16T23:11:38.588Z,-9.50
2022-12-16T23:16:15.420Z,-9.83
2022-12-16T23:20:36.417Z,-9.51
2022-12-16T23:24:57.362Z,-9.92
2022-12-16T23:29:19.511Z,-9.57
2022-12-16T23:33:40.182Z,-9.64
2022-12-16T23:38:06.602Z,-9.90
2022-12-16T23:42:27.873Z,-9.90
2022-12-16T23:46:50.577Z,-9.95
2022-12-16T23:51:12.128Z,-9.70
2022-12-16T23:55:33.894Z,-10.04
2022-12-16T23:59:54.652Z,-9.81
